createdAt,value
2019-05-26T00:01:15.383Z,27.25
2019-05-26T00:03:48.785Z,27.60
2019-05-26T00:06:21.998Z,28.75
2019-05-26T00:08:55.217Z,28.07
2019-05-26T00:11:28.291Z,28.47
2019-05-26T00:14:03.244Z,27.10
2019-05-26T00:16:36.330Z,27.87
2019-05-26T00:19:09.401Z,27.80
2019-05-26T00:21:42.309Z,27.85
2019-05-26T00:24:15.434Z,27.98
2019-05-26T00:26:48.654Z,28.00
2019-05-26T00:29:21.650Z,26.55
2019-05-26T00:31:54.689Z,25.70
2019-05-26T00:34:27.813Z,26.17
2019-05-26T00:37:00.940Z,25.70
2019-05-26T00:39:34.015Z,24.80
2019-05-26T00:42:07.111Z,24.77
2019-05-26T00:44:40.217Z,25.85
2019-05-26T00:47:13.368Z,26.02
2019-05-26T00:49:46.380Z,25.55
2019-05-26T00:52:19.426Z,24.50
2019-05-26T00:54:53.517Z,26.23
2019-05-26T00:57:26.738Z,24.85
2019-05-26T00:59:59.802Z,26.82
2019-05-26T01:02:32.973Z,24.57
2019-05-26T01:05:08.402Z,26.97
2019-05-26T01:07:41.490Z,24.98
2019-05-26T01:10:14.736Z,24.98
2019-05-26T01:12:47.788Z,26.07
2019-05-26T01:15:21.053Z,24.07
2019-05-26T01:17:54.197Z,26.10
2019-05-26T01:20:27.269Z,26.23
2019-05-26T01:23:00.254Z,25.75
2019-05-26T01:25:33.240Z,24.32
2019-05-26T01:28:07.323Z,23.92
2019-05-26T01:30:40.435Z,25.65
2019-05-26T01:33:13.561Z,24.05
2019-05-26T01:35:46.626Z,24.72
2019-05-26T01:38:24.092Z,24.57
2019-05-26T01:40:54.976Z,25.08
2019-05-26T01:43:28.013Z,24.72
2019-05-26T01:46:00.979Z,24.85
2019-05-26T01:48:33.959Z,25.70
2019-05-26T01:51:07.089Z,24.05
2019-05-26T01:53:40.623Z,24.65
2019-05-26T01:56:13.892Z,23.75
2019-05-26T01:58:47.112Z,23.73
2019-05-26T02:01:21.403Z,22.65
2019-05-26T02:03:54.959Z,22.98
2019-05-26T02:06:28.113Z,23.47
2019-05-26T02:09:02.893Z,23.05
2019-05-26T02:11:37.526Z,21.55
2019-05-26T02:14:14.391Z,22.55
2019-05-26T02:16:45.287Z,21.48
2019-05-26T02:19:18.176Z,20.12
2019-05-26T02:21:51.262Z,21.00
2019-05-26T02:24:26.680Z,19.95
2019-05-26T02:26:59.811Z,19.60
2019-05-26T02:29:32.840Z,18.98
2019-05-26T02:32:05.808Z,19.73
2019-05-26T02:34:38.873Z,19.55
2019-05-26T02:37:11.843Z,18.77
2019-05-26T02:39:44.825Z,18.70
2019-05-26T02:42:17.785Z,17.65
2019-05-26T02:44:50.916Z,18.87
2019-05-26T02:47:23.978Z,17.65
2019-05-26T02:49:56.934Z,18.32
2019-05-26T02:52:30.050Z,17.75
2019-05-26T02:55:03.583Z,17.70
2019-05-26T02:57:36.704Z,17.65
2019-05-26T03:00:11.371Z,17.48
2019-05-26T03:02:45.447Z,17.45
2019-05-26T03:05:18.618Z,16.25
2019-05-26T03:07:52.309Z,16.97
2019-05-26T03:10:25.407Z,16.42
2019-05-26T03:13:01.710Z,15.93
2019-05-26T03:15:36.298Z,17.15
2019-05-26T03:18:09.500Z,17.95
2019-05-26T03:20:42.765Z,15.85
2019-05-26T03:23:16.884Z,15.88
2019-05-26T03:25:50.150Z,14.83
2019-05-26T03:28:23.157Z,16.65
2019-05-26T03:30:56.329Z,17.15
2019-05-26T03:33:29.434Z,16.55
2019-05-26T03:36:02.412Z,16.37
2019-05-26T03:38:35.380Z,17.12
2019-05-26T03:41:08.419Z,18.15
2019-05-26T03:43:41.459Z,17.60
2019-05-26T03:46:18.609Z,16.62
2019-05-26T03:48:51.832Z,16.85
2019-05-26T03:51:25.392Z,17.37
2019-05-26T03:53:58.544Z,17.07
2019-05-26T03:56:31.905Z,17.95
2019-05-26T03:59:05.252Z,15.90
2019-05-26T04:01:38.402Z,17.70
2019-05-26T04:04:12.176Z,16.80
2019-05-26T04:06:45.179Z,16.77
2019-05-26T04:09:18.302Z,16.75
2019-05-26T04:11:51.488Z,16.85
2019-05-26T04:14:24.761Z,17.17
2019-05-26T04:16:59.511Z,18.65
2019-05-26T04:19:32.770Z,17.87
2019-05-26T04:22:05.807Z,18.25
2019-05-26T04:24:41.271Z,16.25
2019-05-26T04:27:14.359Z,17.77
2019-05-26T04:29:47.367Z,17.05
2019-05-26T04:32:20.359Z,15.90
2019-05-26T04:34:53.598Z,17.60
2019-05-26T04:37:26.791Z,17.37
2019-05-26T04:39:59.990Z,17.10
2019-05-26T04:42:32.984Z,16.42
2019-05-26T04:45:09.369Z,16.93
2019-05-26T04:47:42.513Z,17.55
2019-05-26T04:50:15.845Z,17.20
2019-05-26T04:53:05.448Z,16.82
2019-05-26T04:55:23.914Z,16.97
2019-05-26T04:57:57.028Z,18.30
2019-05-26T05:00:30.009Z,17.77
2019-05-26T05:03:03.271Z,19.85
2019-05-26T05:05:36.398Z,16.32
2019-05-26T05:08:09.509Z,20.52
2019-05-26T05:10:43.103Z,16.12
2019-05-26T05:13:16.244Z,15.88
2019-05-26T05:15:49.389Z,14.90
2019-05-26T05:18:22.441Z,15.13
2019-05-26T05:20:56.495Z,14.60
2019-05-26T05:23:29.561Z,15.70
2019-05-26T05:26:02.572Z,16.23
2019-05-26T05:28:35.701Z,16.85
2019-05-26T05:31:08.710Z,16.32
2019-05-26T05:33:42.997Z,16.95
2019-05-26T05:36:16.680Z,16.73
2019-05-26T05:38:49.697Z,15.83
2019-05-26T05:41:22.799Z,18.25
2019-05-26T05:43:55.893Z,16.65
2019-05-26T05:46:28.951Z,16.52
2019-05-26T05:49:02.141Z,17.15
2019-05-26T05:51:35.818Z,15.72
2019-05-26T05:54:09.063Z,14.63
2019-05-26T05:56:42.150Z,14.28
2019-05-26T05:59:15.206Z,15.60
2019-05-26T06:01:48.436Z,13.75
2019-05-26T06:04:21.526Z,14.90
2019-05-26T06:06:54.776Z,14.35
2019-05-26T06:09:27.805Z,15.50
2019-05-26T06:12:00.967Z,14.65
2019-05-26T06:14:34.109Z,12.37
2019-05-26T06:17:10.468Z,14.07
2019-05-26T06:19:41.958Z,11.83
2019-05-26T06:22:16.061Z,11.50
2019-05-26T06:24:49.286Z,11.70
2019-05-26T06:27:22.292Z,11.75
2019-05-26T06:29:59.302Z,12.68
2019-05-26T06:32:30.261Z,11.45
2019-05-26T06:35:03.328Z,13.00
2019-05-26T06:37:36.446Z,12.15
2019-05-26T06:40:11.010Z,12.13
2019-05-26T06:42:44.013Z,13.88
2019-05-26T06:45:17.635Z,13.30
2019-05-26T06:47:50.677Z,11.83
2019-05-26T06:50:24.722Z,13.50
2019-05-26T06:52:58.119Z,12.25
2019-05-26T06:55:31.326Z,12.70
2019-05-26T06:58:04.460Z,12.55
2019-05-26T07:00:37.642Z,12.93
2019-05-26T07:03:11.377Z,13.43
2019-05-26T07:05:44.496Z,14.75
2019-05-26T07:08:17.681Z,15.23
2019-05-26T07:10:50.710Z,20.00
2019-05-26T07:13:23.796Z,14.38
2019-05-26T07:15:56.914Z,12.68
2019-05-26T07:18:29.909Z,11.50
2019-05-26T07:21:04.028Z,11.35
2019-05-26T07:23:37.082Z,11.45
2019-05-26T07:26:10.193Z,11.12
2019-05-26T07:28:43.364Z,10.98
2019-05-26T07:31:16.437Z,9.83
2019-05-26T07:33:49.505Z,10.43
2019-05-26T07:36:22.603Z,9.93
2019-05-26T07:38:55.689Z,10.70
2019-05-26T07:41:28.674Z,9.13
2019-05-26T07:44:01.944Z,9.40
2019-05-26T07:46:35.076Z,8.30
2019-05-26T07:49:08.166Z,9.30
2019-05-26T07:51:41.251Z,8.88
2019-05-26T07:54:25.049Z,8.50
2019-05-26T07:56:49.535Z,7.58
2019-05-26T07:59:22.668Z,6.90
2019-05-26T08:01:55.809Z,7.87
2019-05-26T08:04:30.154Z,8.20
2019-05-26T08:07:03.223Z,8.18
2019-05-26T08:09:36.042Z,8.35
2019-05-26T08:12:23.082Z,7.05
2019-05-26T08:14:43.617Z,7.83
2019-05-26T08:17:16.704Z,7.12
2019-05-26T08:23:00.221Z,6.62
2019-05-26T08:25:49.764Z,6.85
2019-05-26T08:28:22.762Z,6.55
2019-05-26T08:30:56.828Z,6.58
2019-05-26T08:34:19.938Z,6.20
2019-05-26T08:36:52.320Z,7.35
2019-05-26T08:39:24.578Z,7.12
2019-05-26T08:41:56.645Z,6.80
2019-05-26T08:44:29.115Z,7.40
2019-05-26T08:47:01.144Z,7.83
2019-05-26T08:49:33.764Z,7.95
2019-05-26T08:52:06.649Z,7.72
2019-05-26T08:54:39.015Z,8.65
2019-05-26T08:57:11.392Z,8.50
2019-05-26T08:59:43.657Z,7.90
2019-05-26T09:02:16.039Z,8.25
2019-05-26T09:04:48.405Z,8.33
2019-05-26T09:07:22.420Z,7.83
2019-05-26T09:09:54.679Z,7.67
2019-05-26T09:12:27.156Z,7.50
2019-05-26T09:15:00.145Z,9.28
2019-05-26T09:17:32.820Z,7.55
2019-05-26T09:20:11.809Z,8.23
2019-05-26T09:22:46.881Z,7.00
2019-05-26T09:25:19.199Z,6.85
2019-05-26T09:27:51.481Z,7.87
2019-05-26T09:30:24.308Z,7.17
2019-05-26T09:32:56.567Z,7.95
2019-05-26T09:35:28.703Z,8.45
2019-05-26T09:38:01.319Z,9.93
2019-05-26T09:40:33.892Z,9.70
2019-05-26T09:43:15.815Z,9.05
2019-05-26T09:45:40.480Z,9.75
2019-05-26T09:48:13.063Z,9.78
2019-05-26T09:50:45.432Z,10.03
2019-05-26T09:53:18.109Z,10.82
2019-05-26T09:55:50.681Z,11.30
2019-05-26T09:58:23.070Z,11.08
2019-05-26T10:00:55.572Z,12.20
2019-05-26T10:03:28.414Z,8.70
2019-05-26T10:06:01.910Z,9.48
2019-05-26T10:08:34.489Z,8.95
2019-05-26T10:11:06.861Z,8.15
2019-05-26T10:13:39.539Z,9.05
2019-05-26T10:16:12.017Z,7.47
2019-05-26T10:18:44.421Z,7.45
2019-05-26T10:21:16.758Z,8.65
2019-05-26T10:23:53.091Z,7.85
2019-05-26T10:26:24.272Z,7.17
2019-05-26T10:29:00.407Z,6.70
2019-05-26T10:31:31.178Z,6.45
2019-05-26T10:34:03.840Z,6.50
2019-05-26T10:36:36.337Z,7.22
2019-05-26T10:39:09.713Z,7.90
2019-05-26T10:41:42.187Z,7.87
2019-05-26T10:44:14.658Z,7.78
2019-05-26T10:46:46.936Z,7.78
2019-05-26T10:49:19.468Z,8.30
2019-05-26T10:51:52.722Z,7.70
2019-05-26T10:54:25.436Z,7.78
2019-05-26T10:56:57.845Z,6.80
2019-05-26T10:59:31.275Z,7.03
2019-05-26T11:02:04.237Z,7.00
2019-05-26T11:04:36.762Z,7.20
2019-05-26T11:07:09.022Z,6.80
2019-05-26T11:09:42.137Z,7.00
2019-05-26T11:12:16.489Z,7.62
2019-05-26T11:14:48.831Z,8.33
2019-05-26T11:17:21.742Z,7.97
2019-05-26T11:19:53.981Z,7.58
2019-05-26T11:22:27.070Z,8.60
2019-05-26T11:24:59.427Z,8.23
2019-05-26T11:27:31.777Z,7.67
2019-05-26T11:30:05.769Z,7.90
2019-05-26T11:32:38.080Z,8.00
2019-05-26T11:35:11.835Z,6.50
2019-05-26T11:37:44.068Z,7.20
2019-05-26T11:40:16.784Z,6.33
2019-05-26T11:42:48.944Z,6.62
2019-05-26T11:45:21.521Z,5.85
2019-05-26T11:47:53.832Z,6.53
2019-05-26T11:50:26.079Z,6.58
2019-05-26T11:52:59.685Z,11.57
2019-05-26T11:55:32.010Z,7.60
2019-05-26T11:58:04.307Z,6.97
2019-05-26T12:00:36.627Z,6.30
2019-05-26T12:03:09.083Z,6.53
2019-05-26T12:05:41.505Z,8.58
2019-05-26T12:08:13.767Z,7.22
2019-05-26T12:10:46.043Z,7.92
2019-05-26T12:13:18.794Z,7.37
2019-05-26T12:15:51.037Z,8.95
2019-05-26T12:18:23.285Z,7.55
2019-05-26T12:20:55.542Z,7.47
2019-05-26T12:23:28.902Z,7.87
2019-05-26T12:26:00.947Z,7.45
2019-05-26T12:28:33.256Z,7.90
2019-05-26T12:31:06.247Z,7.62
2019-05-26T12:33:38.545Z,8.35
2019-05-26T12:36:11.000Z,8.13
2019-05-26T12:38:52.556Z,9.90
2019-05-26T12:41:24.999Z,8.68
2019-05-26T12:43:57.268Z,8.58
2019-05-26T12:46:29.342Z,8.25
2019-05-26T12:49:01.563Z,8.30
2019-05-26T12:51:33.879Z,7.87
2019-05-26T12:54:06.518Z,8.60
2019-05-26T12:56:38.994Z,8.38
2019-05-26T12:59:11.331Z,9.10
2019-05-26T13:01:44.247Z,8.28
2019-05-26T13:04:16.915Z,8.70
2019-05-26T13:06:49.437Z,10.13
2019-05-26T13:09:21.813Z,10.38
2019-05-26T13:11:54.052Z,10.55
2019-05-26T13:14:26.284Z,11.25
2019-05-26T13:17:01.534Z,10.68
2019-05-26T13:19:32.812Z,10.68
2019-05-26T13:22:05.410Z,9.73
2019-05-26T13:24:38.075Z,9.70
2019-05-26T13:27:10.612Z,8.20
2019-05-26T13:29:42.763Z,7.95
2019-05-26T13:32:15.023Z,8.95
2019-05-26T13:34:47.498Z,7.65
2019-05-26T13:37:19.860Z,6.95
2019-05-26T13:39:52.098Z,7.05
2019-05-26T13:42:24.400Z,6.60
2019-05-26T13:44:56.736Z,7.20
2019-05-26T13:47:29.058Z,8.53
2019-05-26T13:50:02.161Z,7.75
2019-05-26T13:52:34.560Z,7.70
2019-05-26T13:55:09.292Z,9.53
2019-05-26T13:57:41.632Z,8.23
2019-05-26T14:00:16.270Z,8.53
2019-05-26T14:02:49.209Z,12.20
2019-05-26T14:05:21.830Z,10.65
2019-05-26T14:07:54.103Z,11.00
2019-05-26T14:10:32.314Z,12.35
2019-05-26T14:13:06.326Z,10.60
2019-05-26T14:15:39.437Z,11.08
2019-05-26T14:18:12.329Z,10.98
2019-05-26T14:20:45.793Z,10.35
2019-05-26T14:23:18.676Z,9.80
2019-05-26T14:25:51.262Z,10.48
2019-05-26T14:28:23.730Z,10.32
2019-05-26T14:30:56.097Z,9.85
2019-05-26T14:33:28.689Z,10.55
2019-05-26T14:36:01.127Z,11.18
2019-05-26T14:38:42.691Z,8.35
2019-05-26T14:41:07.942Z,7.50
2019-05-26T14:43:40.622Z,7.70
2019-05-26T14:46:12.893Z,8.50
2019-05-26T14:48:45.575Z,9.38
2019-05-26T14:51:18.039Z,9.83
2019-05-26T14:53:50.827Z,10.40
2019-05-26T14:56:23.003Z,16.12
2019-05-26T14:58:55.253Z,12.35
2019-05-26T15:01:27.678Z,11.43
2019-05-26T15:04:00.938Z,11.97
2019-05-26T15:06:33.301Z,12.95
2019-05-26T15:09:22.381Z,12.78
2019-05-26T15:11:42.242Z,11.50
2019-05-26T15:14:14.856Z,10.88
2019-05-26T15:16:47.557Z,9.98
2019-05-26T15:19:19.782Z,8.18
2019-05-26T15:21:51.954Z,9.43
2019-05-26T15:24:24.274Z,8.65
2019-05-26T15:26:56.539Z,8.93
2019-05-26T15:29:29.051Z,8.88
2019-05-26T15:32:03.113Z,9.55
2019-05-26T15:34:35.383Z,8.88
2019-05-26T15:37:07.564Z,9.93
2019-05-26T15:39:39.873Z,12.93
2019-05-26T15:42:12.114Z,11.60
2019-05-26T15:44:44.375Z,10.30
2019-05-26T15:47:17.720Z,11.50
2019-05-26T15:49:50.130Z,9.88
2019-05-26T15:52:23.314Z,11.30
2019-05-26T15:54:56.040Z,12.70
2019-05-26T15:57:28.418Z,18.30
2019-05-26T16:00:00.891Z,10.78
2019-05-26T16:02:35.157Z,11.25
2019-05-26T16:05:08.607Z,12.05
2019-05-26T16:07:40.872Z,11.10
2019-05-26T16:10:13.860Z,13.85
2019-05-26T16:12:46.231Z,10.88
2019-05-26T16:15:19.635Z,18.70
2019-05-26T16:17:51.900Z,10.95
2019-05-26T16:20:24.186Z,10.20
2019-05-26T16:22:56.636Z,10.03
2019-05-26T16:25:29.230Z,10.18
2019-05-26T16:28:01.688Z,10.03
2019-05-26T16:30:34.394Z,12.85
2019-05-26T16:33:06.652Z,13.80
2019-05-26T16:35:39.158Z,15.15
2019-05-26T16:38:11.485Z,13.60
2019-05-26T16:40:45.142Z,14.25
2019-05-26T16:43:17.435Z,12.93
2019-05-26T16:45:56.207Z,15.38
2019-05-26T16:48:23.843Z,19.05
2019-05-26T16:50:56.414Z,13.58
2019-05-26T16:53:29.160Z,10.90
2019-05-26T16:56:01.525Z,11.60
2019-05-26T16:58:33.805Z,13.83
2019-05-26T17:01:06.169Z,14.58
2019-05-26T17:03:39.163Z,12.88
2019-05-26T17:06:11.453Z,13.22
2019-05-26T17:08:43.734Z,13.00
2019-05-26T17:11:16.318Z,11.97
2019-05-26T17:13:48.994Z,12.68
2019-05-26T17:16:21.224Z,11.73
2019-05-26T17:18:53.592Z,19.70
2019-05-26T17:21:25.809Z,14.00
2019-05-26T17:23:58.179Z,14.38
2019-05-26T17:26:30.545Z,12.78
2019-05-26T17:29:02.917Z,12.73
2019-05-26T17:31:36.352Z,13.95
2019-05-26T17:34:09.205Z,13.98
2019-05-26T17:36:41.667Z,19.98
2019-05-26T17:39:13.944Z,17.20
2019-05-26T17:41:46.307Z,14.00
2019-05-26T17:44:18.784Z,13.62
2019-05-26T17:46:51.266Z,18.82
2019-05-26T17:49:23.836Z,16.27
2019-05-26T17:51:56.669Z,13.88
2019-05-26T17:54:29.555Z,13.62
2019-05-26T17:57:01.904Z,14.05
2019-05-26T17:59:34.229Z,11.10
2019-05-26T18:02:07.596Z,12.33
2019-05-26T18:04:40.026Z,12.55
2019-05-26T18:07:12.518Z,12.47
2019-05-26T18:09:44.904Z,12.98
2019-05-26T18:12:17.254Z,14.38
2019-05-26T18:14:49.720Z,13.18
2019-05-26T18:17:22.196Z,13.00
2019-05-26T18:19:54.673Z,13.48
2019-05-26T18:22:27.044Z,13.32
2019-05-26T18:24:59.679Z,14.43
2019-05-26T18:27:32.079Z,14.03
2019-05-26T18:30:10.698Z,13.58
2019-05-26T18:32:43.686Z,13.88
2019-05-26T18:35:16.466Z,32.53
2019-05-26T18:37:52.191Z,15.03
2019-05-26T18:40:22.947Z,14.65
2019-05-26T18:42:58.495Z,13.62
2019-05-26T18:45:31.176Z,13.40
2019-05-26T18:48:04.158Z,13.00
2019-05-26T18:50:36.947Z,13.10
2019-05-26T18:53:09.938Z,13.22
2019-05-26T18:55:42.400Z,13.28
2019-05-26T18:58:14.983Z,13.58
2019-05-26T19:00:47.684Z,13.25
2019-05-26T19:03:20.448Z,15.13
2019-05-26T19:05:52.909Z,15.40
2019-05-26T19:08:25.283Z,15.08
2019-05-26T19:10:57.552Z,14.93
2019-05-26T19:13:30.342Z,14.70
2019-05-26T19:16:02.598Z,16.17
2019-05-26T19:18:35.286Z,18.65
2019-05-26T19:21:08.066Z,18.27
2019-05-26T19:23:40.539Z,20.23
2019-05-26T19:26:14.051Z,21.07
2019-05-26T19:28:46.507Z,22.98
2019-05-26T19:31:18.989Z,22.80
2019-05-26T19:33:51.554Z,24.20
2019-05-26T19:36:23.933Z,24.45
2019-05-26T19:38:56.203Z,24.80
2019-05-26T19:41:28.588Z,24.50
2019-05-26T19:44:01.153Z,26.75
2019-05-26T19:46:33.351Z,26.62
2019-05-26T19:49:05.801Z,27.52
2019-05-26T19:51:38.233Z,27.58
2019-05-26T19:54:11.357Z,28.30
2019-05-26T19:56:44.250Z,27.67
2019-05-26T19:59:16.922Z,27.55
2019-05-26T20:01:49.803Z,29.45
2019-05-26T20:04:22.488Z,28.35
2019-05-26T20:06:55.185Z,29.63
2019-05-26T20:09:27.859Z,27.75
2019-05-26T20:12:00.210Z,28.98
2019-05-26T20:14:32.699Z,27.65
2019-05-26T20:17:05.182Z,26.80
2019-05-26T20:19:37.826Z,26.60
2019-05-26T20:22:10.331Z,26.10
2019-05-26T20:24:42.717Z,26.40
2019-05-26T20:27:15.040Z,26.45
2019-05-26T20:29:47.198Z,27.22
2019-05-26T20:32:19.554Z,25.48
2019-05-26T20:34:51.776Z,27.45
2019-05-26T20:37:24.047Z,25.90
2019-05-26T20:39:56.228Z,25.92
2019-05-26T20:42:29.755Z,25.10
2019-05-26T20:45:02.176Z,24.70
2019-05-26T20:47:34.506Z,23.90
2019-05-26T20:50:07.517Z,23.45
2019-05-26T20:52:40.342Z,36.17
2019-05-26T20:55:12.991Z,22.02
2019-05-26T20:57:45.262Z,19.67
2019-05-26T21:00:18.202Z,18.67
2019-05-26T21:02:50.728Z,19.25
2019-05-26T21:05:24.708Z,19.15
2019-05-26T21:07:56.997Z,17.75
2019-05-26T21:10:29.167Z,17.07
2019-05-26T21:13:02.745Z,16.27
2019-05-26T21:15:34.972Z,16.20
2019-05-26T21:18:07.376Z,16.25
2019-05-26T21:20:39.603Z,15.40
2019-05-26T21:23:11.904Z,15.85
2019-05-26T21:25:44.187Z,15.08
2019-05-26T21:28:16.330Z,16.32
2019-05-26T21:30:48.496Z,16.02
2019-05-26T21:33:20.830Z,14.80
2019-05-26T21:35:53.145Z,14.73
2019-05-26T21:38:25.383Z,16.20
2019-05-26T21:40:57.538Z,15.83
2019-05-26T21:43:29.787Z,16.27
2019-05-26T21:46:02.064Z,14.85
2019-05-26T21:48:34.859Z,15.18
2019-05-26T21:51:07.427Z,15.50
2019-05-26T21:53:39.927Z,15.15
2019-05-26T21:56:12.270Z,15.38
2019-05-26T21:58:44.591Z,15.63
2019-05-26T22:01:16.927Z,15.43
2019-05-26T22:03:49.385Z,15.13
2019-05-26T22:06:21.820Z,15.48
2019-05-26T22:08:54.332Z,15.65
2019-05-26T22:11:27.009Z,15.30
2019-05-26T22:13:59.486Z,15.93
2019-05-26T22:16:31.861Z,14.87
2019-05-26T22:19:04.535Z,14.15
2019-05-26T22:21:37.110Z,14.25
2019-05-26T22:24:10.952Z,14.13
2019-05-26T22:26:43.596Z,14.83
2019-05-26T22:29:16.072Z,15.10
2019-05-26T22:31:48.753Z,15.00
2019-05-26T22:34:21.024Z,13.98
2019-05-26T22:36:53.406Z,14.35
2019-05-26T22:39:25.659Z,14.10
2019-05-26T22:41:58.237Z,14.00
2019-05-26T22:44:30.810Z,14.95
2019-05-26T22:47:03.288Z,14.53
2019-05-26T22:49:35.762Z,14.78
2019-05-26T22:52:08.032Z,13.85
2019-05-26T22:54:41.813Z,13.53
2019-05-26T22:57:14.250Z,13.85
2019-05-26T22:59:46.785Z,13.72
2019-05-26T23:02:19.718Z,14.13
2019-05-26T23:04:53.267Z,12.98
2019-05-26T23:07:25.716Z,13.22
2019-05-26T23:09:58.218Z,12.33
2019-05-26T23:12:31.922Z,12.00
2019-05-26T23:15:09.121Z,12.50
2019-05-26T23:17:41.320Z,11.43
2019-05-26T23:20:13.902Z,11.43
2019-05-26T23:22:46.158Z,10.98
2019-05-26T23:25:18.695Z,10.82
2019-05-26T23:27:51.073Z,10.95
2019-05-26T23:30:24.772Z,10.20
2019-05-26T23:32:57.105Z,9.75
2019-05-26T23:35:29.516Z,10.50
2019-05-26T23:38:02.092Z,10.35
2019-05-26T23:40:34.688Z,9.18
2019-05-26T23:43:07.147Z,9.88
2019-05-26T23:45:39.311Z,9.75
2019-05-26T23:48:11.681Z,9.70
2019-05-26T23:50:43.921Z,9.53
2019-05-26T23:53:16.732Z,9.53
2019-05-26T23:55:49.001Z,9.38
2019-05-26T23:58:21.477Z,9.28
